sensor_id;sensor_type;location;lat;lon;timestamp;P1;durP1;ratioP1;P2;durP2;ratioP2
44508;SDS011;30214;52.246;14.408;2023-01-08T00:01:16;10.07;;;3.72;;
44508;SDS011;30214;52.246;14.408;2023-01-08T00:03:43;5.05;;;3.05;;
44508;SDS011;30214;52.246;14.408;2023-01-08T00:06:15;5.70;;;3.30;;
44508;SDS011;30214;52.246;14.408;2023-01-08T00:08:45;4.93;;;3.03;;
44508;SDS011;30214;52.246;14.408;2023-01-08T00:11:13;5.65;;;3.50;;
44508;SDS011;30214;52.246;14.408;2023-01-08T00:13:40;5.95;;;3.30;;
44508;SDS011;30214;52.246;14.408;2023-01-08T00:16:09;6.47;;;3.40;;
44508;SDS011;30214;52.246;14.408;2023-01-08T00:18:37;5.25;;;3.25;;
44508;SDS011;30214;52.246;14.408;2023-01-08T00:21:07;6.03;;;3.20;;
44508;SDS011;30214;52.246;14.408;2023-01-08T00:23:36;5.30;;;3.55;;
44508;SDS011;30214;52.246;14.408;2023-01-08T00:26:04;5.60;;;3.05;;
44508;SDS011;30214;52.246;14.408;2023-01-08T00:28:33;5.28;;;3.17;;
44508;SDS011;30214;52.246;14.408;2023-01-08T00:31:02;5.45;;;3.50;;
44508;SDS011;30214;52.246;14.408;2023-01-08T00:33:30;8.43;;;3.53;;
44508;SDS011;30214;52.246;14.408;2023-01-08T00:36:05;5.47;;;3.88;;
44508;SDS011;30214;52.246;14.408;2023-01-08T00:38:33;5.77;;;3.43;;
44508;SDS011;30214;52.246;14.408;2023-01-08T00:41:02;6.18;;;4.00;;
44508;SDS011;30214;52.246;14.408;2023-01-08T00:43:30;5.35;;;2.97;;
44508;SDS011;30214;52.246;14.408;2023-01-08T00:45:57;4.40;;;3.25;;
44508;SDS011;30214;52.246;14.408;2023-01-08T00:48:24;4.97;;;3.03;;
44508;SDS011;30214;52.246;14.408;2023-01-08T00:50:55;5.13;;;3.08;;
44508;SDS011;30214;52.246;14.408;2023-01-08T00:53:22;6.25;;;2.95;;
44508;SDS011;30214;52.246;14.408;2023-01-08T00:55:57;4.70;;;3.10;;
44508;SDS011;30214;52.246;14.408;2023-01-08T00:58:26;4.82;;;3.13;;
44508;SDS011;30214;52.246;14.408;2023-01-08T01:00:53;4.57;;;2.95;;
44508;SDS011;30214;52.246;14.408;2023-01-08T01:03:20;6.20;;;3.22;;
44508;SDS011;30214;52.246;14.408;2023-01-08T01:05:47;5.82;;;3.17;;
44508;SDS011;30214;52.246;14.408;2023-01-08T01:08:15;6.25;;;3.38;;
44508;SDS011;30214;52.246;14.408;2023-01-08T01:10:42;5.32;;;3.30;;
44508;SDS011;30214;52.246;14.408;2023-01-08T01:13:11;7.38;;;3.30;;
44508;SDS011;30214;52.246;14.408;2023-01-08T01:15:40;6.70;;;3.20;;
44508;SDS011;30214;52.246;14.408;2023-01-08T01:18:07;5.45;;;3.10;;
44508;SDS011;30214;52.246;14.408;2023-01-08T01:20:35;5.35;;;3.30;;
44508;SDS011;30214;52.246;14.408;2023-01-08T01:23:02;6.70;;;3.25;;
44508;SDS011;30214;52.246;14.408;2023-01-08T01:25:29;5.70;;;3.28;;
44508;SDS011;30214;52.246;14.408;2023-01-08T01:28:02;5.38;;;3.40;;
44508;SDS011;30214;52.246;14.408;2023-01-08T01:30:33;5.47;;;3.22;;
44508;SDS011;30214;52.246;14.408;2023-01-08T01:33:00;6.57;;;3.65;;
44508;SDS011;30214;52.246;14.408;2023-01-08T01:35:27;7.40;;;3.58;;
44508;SDS011;30214;52.246;14.408;2023-01-08T01:37:54;6.53;;;3.20;;
44508;SDS011;30214;52.246;14.408;2023-01-08T01:40:21;6.80;;;3.60;;
44508;SDS011;30214;52.246;14.408;2023-01-08T01:42:48;6.15;;;3.40;;
44508;SDS011;30214;52.246;14.408;2023-01-08T01:45:16;6.07;;;3.13;;
44508;SDS011;30214;52.246;14.408;2023-01-08T01:47:48;5.90;;;3.50;;
44508;SDS011;30214;52.246;14.408;2023-01-08T01:50:20;6.07;;;3.17;;
44508;SDS011;30214;52.246;14.408;2023-01-08T01:52:54;7.22;;;3.42;;
44508;SDS011;30214;52.246;14.408;2023-01-08T01:55:26;6.68;;;3.80;;
44508;SDS011;30214;52.246;14.408;2023-01-08T01:57:57;5.20;;;3.30;;
44508;SDS011;30214;52.246;14.408;2023-01-08T02:00:31;5.97;;;3.35;;
44508;SDS011;30214;52.246;14.408;2023-01-08T02:03:00;6.68;;;3.65;;
44508;SDS011;30214;52.246;14.408;2023-01-08T02:05:33;5.97;;;3.50;;
44508;SDS011;30214;52.246;14.408;2023-01-08T02:08:12;5.88;;;3.50;;
44508;SDS011;30214;52.246;14.408;2023-01-08T02:10:50;6.20;;;3.45;;
44508;SDS011;30214;52.246;14.408;2023-01-08T02:13:24;6.80;;;3.70;;
44508;SDS011;30214;52.246;14.408;2023-01-08T02:15:56;6.57;;;3.70;;
44508;SDS011;30214;52.246;14.408;2023-01-08T02:18:29;6.18;;;3.70;;
44508;SDS011;30214;52.246;14.408;2023-01-08T02:21:04;5.38;;;3.58;;
44508;SDS011;30214;52.246;14.408;2023-01-08T02:23:36;5.32;;;3.50;;
44508;SDS011;30214;52.246;14.408;2023-01-08T02:26:14;6.45;;;3.70;;
44508;SDS011;30214;52.246;14.408;2023-01-08T02:28:46;6.35;;;3.80;;
44508;SDS011;30214;52.246;14.408;2023-01-08T02:33:46;7.95;;;4.07;;
44508;SDS011;30214;52.246;14.408;2023-01-08T02:36:16;6.35;;;3.75;;
44508;SDS011;30214;52.246;14.408;2023-01-08T02:38:57;5.53;;;3.65;;
44508;SDS011;30214;52.246;14.408;2023-01-08T02:41:43;6.93;;;3.85;;
44508;SDS011;30214;52.246;14.408;2023-01-08T02:44:21;7.47;;;3.85;;
44508;SDS011;30214;52.246;14.408;2023-01-08T02:46:54;7.53;;;4.18;;
44508;SDS011;30214;52.246;14.408;2023-01-08T02:49:23;6.47;;;3.60;;
44508;SDS011;30214;52.246;14.408;2023-01-08T02:51:58;6.32;;;3.60;;
44508;SDS011;30214;52.246;14.408;2023-01-08T02:54:30;8.80;;;4.28;;
44508;SDS011;30214;52.246;14.408;2023-01-08T02:57:02;7.10;;;3.80;;
44508;SDS011;30214;52.246;14.408;2023-01-08T02:59:34;6.90;;;4.20;;
44508;SDS011;30214;52.246;14.408;2023-01-08T03:02:03;5.20;;;3.67;;
44508;SDS011;30214;52.246;14.408;2023-01-08T03:04:33;6.75;;;3.95;;
44508;SDS011;30214;52.246;14.408;2023-01-08T03:07:10;6.90;;;4.07;;
44508;SDS011;30214;52.246;14.408;2023-01-08T03:09:37;7.43;;;4.28;;
44508;SDS011;30214;52.246;14.408;2023-01-08T03:12:08;6.93;;;3.97;;
44508;SDS011;30214;52.246;14.408;2023-01-08T03:14:43;5.65;;;3.75;;
44508;SDS011;30214;52.246;14.408;2023-01-08T03:17:20;6.25;;;3.83;;
44508;SDS011;30214;52.246;14.408;2023-01-08T03:19:52;5.68;;;3.60;;
44508;SDS011;30214;52.246;14.408;2023-01-08T03:22:22;6.70;;;4.05;;
44508;SDS011;30214;52.246;14.408;2023-01-08T03:24:50;6.63;;;3.85;;
44508;SDS011;30214;52.246;14.408;2023-01-08T03:27:21;7.47;;;4.22;;
44508;SDS011;30214;52.246;14.408;2023-01-08T03:29:53;7.05;;;4.35;;
44508;SDS011;30214;52.246;14.408;2023-01-08T03:32:24;6.47;;;4.43;;
44508;SDS011;30214;52.246;14.408;2023-01-08T03:34:54;6.20;;;4.20;;
44508;SDS011;30214;52.246;14.408;2023-01-08T03:37:26;6.38;;;4.43;;
44508;SDS011;30214;52.246;14.408;2023-01-08T03:39:59;6.57;;;3.90;;
44508;SDS011;30214;52.246;14.408;2023-01-08T03:42:32;7.22;;;4.40;;
44508;SDS011;30214;52.246;14.408;2023-01-08T03:45:00;7.72;;;3.63;;
44508;SDS011;30214;52.246;14.408;2023-01-08T03:47:28;6.10;;;3.95;;
44508;SDS011;30214;52.246;14.408;2023-01-08T03:49:59;6.32;;;3.92;;
44508;SDS011;30214;52.246;14.408;2023-01-08T03:52:30;6.72;;;3.85;;
44508;SDS011;30214;52.246;14.408;2023-01-08T03:54:58;7.10;;;4.32;;
44508;SDS011;30214;52.246;14.408;2023-01-08T03:57:25;7.65;;;4.45;;
44508;SDS011;30214;52.246;14.408;2023-01-08T03:59:53;8.70;;;4.28;;
44508;SDS011;30214;52.246;14.408;2023-01-08T04:02:20;6.90;;;4.25;;
44508;SDS011;30214;52.246;14.408;2023-01-08T04:04:48;6.43;;;4.43;;
44508;SDS011;30214;52.246;14.408;2023-01-08T04:07:15;6.57;;;4.10;;
44508;SDS011;30214;52.246;14.408;2023-01-08T04:09:42;6.60;;;4.13;;
44508;SDS011;30214;52.246;14.408;2023-01-08T04:12:09;5.80;;;3.92;;
44508;SDS011;30214;52.246;14.408;2023-01-08T04:14:36;5.82;;;3.90;;
44508;SDS011;30214;52.246;14.408;2023-01-08T04:17:04;6.40;;;4.30;;
44508;SDS011;30214;52.246;14.408;2023-01-08T04:19:31;8.02;;;4.38;;
44508;SDS011;30214;52.246;14.408;2023-01-08T04:21:58;6.28;;;4.55;;
44508;SDS011;30214;52.246;14.408;2023-01-08T04:24:25;9.65;;;4.22;;
44508;SDS011;30214;52.246;14.408;2023-01-08T04:26:53;6.45;;;4.10;;
44508;SDS011;30214;52.246;14.408;2023-01-08T04:29:20;9.32;;;4.70;;
44508;SDS011;30214;52.246;14.408;2023-01-08T04:31:47;6.32;;;4.38;;
44508;SDS011;30214;52.246;14.408;2023-01-08T04:34:15;7.80;;;4.35;;
44508;SDS011;30214;52.246;14.408;2023-01-08T04:36:42;9.63;;;4.50;;
44508;SDS011;30214;52.246;14.408;2023-01-08T04:39:09;6.82;;;4.60;;
44508;SDS011;30214;52.246;14.408;2023-01-08T04:41:37;6.63;;;4.57;;
44508;SDS011;30214;52.246;14.408;2023-01-08T04:44:04;7.63;;;4.97;;
44508;SDS011;30214;52.246;14.408;2023-01-08T04:46:31;7.82;;;4.90;;
44508;SDS011;30214;52.246;14.408;2023-01-08T04:48:58;8.13;;;4.70;;
44508;SDS011;30214;52.246;14.408;2023-01-08T04:51:26;7.15;;;4.32;;
44508;SDS011;30214;52.246;14.408;2023-01-08T04:53:53;7.70;;;5.10;;
44508;SDS011;30214;52.246;14.408;2023-01-08T04:56:20;8.63;;;4.78;;
44508;SDS011;30214;52.246;14.408;2023-01-08T04:58:47;6.53;;;4.32;;
44508;SDS011;30214;52.246;14.408;2023-01-08T05:01:17;7.57;;;4.40;;
44508;SDS011;30214;52.246;14.408;2023-01-08T05:03:46;7.10;;;4.80;;
44508;SDS011;30214;52.246;14.408;2023-01-08T05:06:18;7.35;;;4.32;;
44508;SDS011;30214;52.246;14.408;2023-01-08T05:08:46;6.93;;;4.72;;
44508;SDS011;30214;52.246;14.408;2023-01-08T05:11:13;8.05;;;4.35;;
44508;SDS011;30214;52.246;14.408;2023-01-08T05:13:41;8.07;;;4.50;;
44508;SDS011;30214;52.246;14.408;2023-01-08T05:16:08;6.68;;;4.63;;
44508;SDS011;30214;52.246;14.408;2023-01-08T05:18:35;6.90;;;4.40;;
44508;SDS011;30214;52.246;14.408;2023-01-08T05:21:04;6.32;;;4.18;;
44508;SDS011;30214;52.246;14.408;2023-01-08T05:23:32;6.68;;;4.18;;
44508;SDS011;30214;52.246;14.408;2023-01-08T05:26:02;6.05;;;4.28;;
44508;SDS011;30214;52.246;14.408;2023-01-08T05:28:31;8.38;;;4.45;;
44508;SDS011;30214;52.246;14.408;2023-01-08T05:30:59;7.03;;;4.65;;
44508;SDS011;30214;52.246;14.408;2023-01-08T05:33:26;7.40;;;4.43;;
44508;SDS011;30214;52.246;14.408;2023-01-08T05:35:53;6.68;;;4.20;;
44508;SDS011;30214;52.246;14.408;2023-01-08T05:38:20;6.10;;;4.40;;
44508;SDS011;30214;52.246;14.408;2023-01-08T05:40:50;5.93;;;4.15;;
44508;SDS011;30214;52.246;14.408;2023-01-08T05:43:19;7.30;;;4.55;;
44508;SDS011;30214;52.246;14.408;2023-01-08T05:45:46;6.65;;;4.13;;
44508;SDS011;30214;52.246;14.408;2023-01-08T05:48:13;7.25;;;4.03;;
44508;SDS011;30214;52.246;14.408;2023-01-08T05:50:40;6.20;;;4.10;;
44508;SDS011;30214;52.246;14.408;2023-01-08T05:53:07;7.18;;;4.30;;
44508;SDS011;30214;52.246;14.408;2023-01-08T05:55:35;6.13;;;4.35;;
44508;SDS011;30214;52.246;14.408;2023-01-08T05:58:04;7.15;;;4.40;;
44508;SDS011;30214;52.246;14.408;2023-01-08T06:00:33;6.80;;;4.47;;
44508;SDS011;30214;52.246;14.408;2023-01-08T06:03:00;9.07;;;4.65;;
44508;SDS011;30214;52.246;14.408;2023-01-08T06:05:30;9.52;;;4.63;;
44508;SDS011;30214;52.246;14.408;2023-01-08T06:07:58;6.75;;;4.22;;
44508;SDS011;30214;52.246;14.408;2023-01-08T06:10:25;9.13;;;5.60;;
44508;SDS011;30214;52.246;14.408;2023-01-08T06:12:53;7.50;;;4.82;;
44508;SDS011;30214;52.246;14.408;2023-01-08T06:15:20;6.88;;;5.00;;
44508;SDS011;30214;52.246;14.408;2023-01-08T06:17:49;6.78;;;4.40;;
44508;SDS011;30214;52.246;14.408;2023-01-08T06:20:16;6.68;;;4.47;;
44508;SDS011;30214;52.246;14.408;2023-01-08T06:22:43;7.55;;;5.20;;
44508;SDS011;30214;52.246;14.408;2023-01-08T06:25:10;8.38;;;5.50;;
44508;SDS011;30214;52.246;14.408;2023-01-08T06:27:37;9.05;;;4.85;;
44508;SDS011;30214;52.246;14.408;2023-01-08T06:30:05;7.30;;;5.05;;
44508;SDS011;30214;52.246;14.408;2023-01-08T06:32:33;8.70;;;5.00;;
44508;SDS011;30214;52.246;14.408;2023-01-08T06:35:02;10.68;;;5.25;;
44508;SDS011;30214;52.246;14.408;2023-01-08T06:37:30;7.03;;;4.90;;
44508;SDS011;30214;52.246;14.408;2023-01-08T06:39:57;8.90;;;5.45;;
44508;SDS011;30214;52.246;14.408;2023-01-08T06:42:24;7.28;;;5.20;;
44508;SDS011;30214;52.246;14.408;2023-01-08T06:44:51;8.18;;;5.57;;
44508;SDS011;30214;52.246;14.408;2023-01-08T06:47:18;8.32;;;5.50;;
44508;SDS011;30214;52.246;14.408;2023-01-08T06:49:46;8.32;;;5.53;;
44508;SDS011;30214;52.246;14.408;2023-01-08T06:52:14;7.22;;;4.85;;
44508;SDS011;30214;52.246;14.408;2023-01-08T06:54:41;6.95;;;4.85;;
44508;SDS011;30214;52.246;14.408;2023-01-08T06:57:08;7.75;;;5.30;;
44508;SDS011;30214;52.246;14.408;2023-01-08T06:59:35;6.60;;;4.95;;
44508;SDS011;30214;52.246;14.408;2023-01-08T07:02:02;8.10;;;5.65;;
44508;SDS011;30214;52.246;14.408;2023-01-08T07:04:29;10.32;;;5.25;;
44508;SDS011;30214;52.246;14.408;2023-01-08T07:06:57;7.65;;;4.97;;
44508;SDS011;30214;52.246;14.408;2023-01-08T07:09:25;8.43;;;4.88;;
44508;SDS011;30214;52.246;14.408;2023-01-08T07:11:53;9.93;;;5.40;;
44508;SDS011;30214;52.246;14.408;2023-01-08T07:14:20;7.63;;;5.28;;
44508;SDS011;30214;52.246;14.408;2023-01-08T07:16:47;6.10;;;4.70;;
44508;SDS011;30214;52.246;14.408;2023-01-08T07:19:14;8.38;;;5.35;;
44508;SDS011;30214;52.246;14.408;2023-01-08T07:21:41;6.85;;;5.30;;
44508;SDS011;30214;52.246;14.408;2023-01-08T07:24:08;8.07;;;4.97;;
44508;SDS011;30214;52.246;14.408;2023-01-08T07:26:36;8.13;;;5.28;;
44508;SDS011;30214;52.246;14.408;2023-01-08T07:29:04;7.47;;;5.15;;
44508;SDS011;30214;52.246;14.408;2023-01-08T07:31:34;8.30;;;5.55;;
44508;SDS011;30214;52.246;14.408;2023-01-08T07:34:02;9.75;;;5.28;;
44508;SDS011;30214;52.246;14.408;2023-01-08T07:36:29;7.82;;;5.40;;
44508;SDS011;30214;52.246;14.408;2023-01-08T07:38:56;7.82;;;5.50;;
44508;SDS011;30214;52.246;14.408;2023-01-08T07:41:23;6.43;;;4.90;;
44508;SDS011;30214;52.246;14.408;2023-01-08T07:43:52;6.80;;;5.00;;
44508;SDS011;30214;52.246;14.408;2023-01-08T07:46:20;8.32;;;5.13;;
44508;SDS011;30214;52.246;14.408;2023-01-08T07:48:47;8.10;;;5.10;;
44508;SDS011;30214;52.246;14.408;2023-01-08T07:51:15;8.27;;;4.90;;
44508;SDS011;30214;52.246;14.408;2023-01-08T07:53:42;8.07;;;5.25;;
44508;SDS011;30214;52.246;14.408;2023-01-08T07:56:09;7.38;;;4.85;;
44508;SDS011;30214;52.246;14.408;2023-01-08T07:58:36;6.88;;;4.82;;
44508;SDS011;30214;52.246;14.408;2023-01-08T08:01:08;7.72;;;4.97;;
44508;SDS011;30214;52.246;14.408;2023-01-08T08:03:36;8.10;;;5.20;;
44508;SDS011;30214;52.246;14.408;2023-01-08T08:06:04;7.70;;;4.97;;
44508;SDS011;30214;52.246;14.408;2023-01-08T08:08:32;7.70;;;5.00;;
44508;SDS011;30214;52.246;14.408;2023-01-08T08:10:59;6.90;;;4.90;;
44508;SDS011;30214;52.246;14.408;2023-01-08T08:13:26;8.93;;;4.55;;
44508;SDS011;30214;52.246;14.408;2023-01-08T08:15:54;7.68;;;5.30;;
44508;SDS011;30214;52.246;14.408;2023-01-08T08:18:22;7.13;;;5.00;;
44508;SDS011;30214;52.246;14.408;2023-01-08T08:20:50;6.25;;;4.70;;
44508;SDS011;30214;52.246;14.408;2023-01-08T08:23:18;7.25;;;5.13;;
44508;SDS011;30214;52.246;14.408;2023-01-08T08:25:45;6.80;;;4.80;;
44508;SDS011;30214;52.246;14.408;2023-01-08T08:28:13;7.90;;;4.95;;
44508;SDS011;30214;52.246;14.408;2023-01-08T08:30:40;7.55;;;5.07;;
44508;SDS011;30214;52.246;14.408;2023-01-08T08:33:08;7.28;;;4.75;;
44508;SDS011;30214;52.246;14.408;2023-01-08T08:35:37;7.22;;;4.65;;
44508;SDS011;30214;52.246;14.408;2023-01-08T08:38:05;7.13;;;5.25;;
44508;SDS011;30214;52.246;14.408;2023-01-08T08:40:32;8.80;;;4.75;;
44508;SDS011;30214;52.246;14.408;2023-01-08T08:43:00;8.25;;;4.80;;
44508;SDS011;30214;52.246;14.408;2023-01-08T08:45:29;6.53;;;4.78;;
44508;SDS011;30214;52.246;14.408;2023-01-08T08:47:56;7.72;;;4.80;;
44508;SDS011;30214;52.246;14.408;2023-01-08T08:50:23;6.50;;;4.30;;
44508;SDS011;30214;52.246;14.408;2023-01-08T08:52:57;6.47;;;4.78;;
44508;SDS011;30214;52.246;14.408;2023-01-08T08:55:25;7.18;;;4.60;;
44508;SDS011;30214;52.246;14.408;2023-01-08T08:57:52;7.05;;;4.93;;
44508;SDS011;30214;52.246;14.408;2023-01-08T09:00:19;7.10;;;4.85;;
44508;SDS011;30214;52.246;14.408;2023-01-08T09:02:48;7.45;;;5.20;;
44508;SDS011;30214;52.246;14.408;2023-01-08T09:05:16;8.27;;;4.93;;
44508;SDS011;30214;52.246;14.408;2023-01-08T09:07:43;6.28;;;4.47;;
44508;SDS011;30214;52.246;14.408;2023-01-08T09:10:12;7.00;;;5.07;;
44508;SDS011;30214;52.246;14.408;2023-01-08T09:12:39;6.57;;;4.72;;
44508;SDS011;30214;52.246;14.408;2023-01-08T09:15:06;8.18;;;5.20;;
44508;SDS011;30214;52.246;14.408;2023-01-08T09:17:36;6.60;;;4.60;;
44508;SDS011;30214;52.246;14.408;2023-01-08T09:20:03;6.90;;;5.07;;
44508;SDS011;30214;52.246;14.408;2023-01-08T09:22:31;5.68;;;4.50;;
44508;SDS011;30214;52.246;14.408;2023-01-08T09:24:59;6.78;;;4.75;;
44508;SDS011;30214;52.246;14.408;2023-01-08T09:27:27;7.13;;;4.78;;
44508;SDS011;30214;52.246;14.408;2023-01-08T09:29:54;8.05;;;4.55;;
44508;SDS011;30214;52.246;14.408;2023-01-08T09:32:21;6.95;;;4.57;;
44508;SDS011;30214;52.246;14.408;2023-01-08T09:34:48;10.07;;;4.63;;
44508;SDS011;30214;52.246;14.408;2023-01-08T09:37:15;7.10;;;4.40;;
44508;SDS011;30214;52.246;14.408;2023-01-08T09:39:42;15.68;;;5.90;;
44508;SDS011;30214;52.246;14.408;2023-01-08T09:42:10;6.70;;;4.28;;
44508;SDS011;30214;52.246;14.408;2023-01-08T09:44:40;7.25;;;4.80;;
44508;SDS011;30214;52.246;14.408;2023-01-08T09:47:17;6.53;;;4.53;;
44508;SDS011;30214;52.246;14.408;2023-01-08T09:49:51;7.60;;;4.53;;
44508;SDS011;30214;52.246;14.408;2023-01-08T09:52:23;6.70;;;4.20;;
44508;SDS011;30214;52.246;14.408;2023-01-08T09:54:50;7.07;;;4.75;;
44508;SDS011;30214;52.246;14.408;2023-01-08T09:57:19;6.47;;;4.90;;
44508;SDS011;30214;52.246;14.408;2023-01-08T09:59:48;8.30;;;4.47;;
44508;SDS011;30214;52.246;14.408;2023-01-08T10:02:16;6.43;;;4.13;;
44508;SDS011;30214;52.246;14.408;2023-01-08T10:04:47;8.65;;;4.75;;
44508;SDS011;30214;52.246;14.408;2023-01-08T10:07:21;8.03;;;5.37;;
44508;SDS011;30214;52.246;14.408;2023-01-08T10:09:51;6.60;;;4.63;;
44508;SDS011;30214;52.246;14.408;2023-01-08T10:12:21;7.90;;;4.70;;
44508;SDS011;30214;52.246;14.408;2023-01-08T10:14:54;8.05;;;4.60;;
44508;SDS011;30214;52.246;14.408;2023-01-08T10:17:26;7.10;;;5.03;;
44508;SDS011;30214;52.246;14.408;2023-01-08T10:19:57;7.78;;;4.20;;
44508;SDS011;30214;52.246;14.408;2023-01-08T10:22:26;6.18;;;4.07;;
44508;SDS011;30214;52.246;14.408;2023-01-08T10:25:02;5.85;;;4.28;;
44508;SDS011;30214;52.246;14.408;2023-01-08T10:27:36;6.53;;;4.38;;
44508;SDS011;30214;52.246;14.408;2023-01-08T10:30:15;8.13;;;4.13;;
44508;SDS011;30214;52.246;14.408;2023-01-08T10:32:49;5.93;;;4.15;;
44508;SDS011;30214;52.246;14.408;2023-01-08T10:37:49;5.38;;;3.70;;
44508;SDS011;30214;52.246;14.408;2023-01-08T10:40:21;7.05;;;4.30;;
44508;SDS011;30214;52.246;14.408;2023-01-08T10:42:55;5.68;;;4.25;;
44508;SDS011;30214;52.246;14.408;2023-01-08T10:45:32;7.40;;;4.15;;
44508;SDS011;30214;52.246;14.408;2023-01-08T10:48:01;8.50;;;4.50;;
44508;SDS011;30214;52.246;14.408;2023-01-08T10:50:32;7.38;;;4.72;;
44508;SDS011;30214;52.246;14.408;2023-01-08T10:53:02;7.03;;;4.72;;
44508;SDS011;30214;52.246;14.408;2023-01-08T10:55:45;7.70;;;4.88;;
44508;SDS011;30214;52.246;14.408;2023-01-08T10:58:23;7.60;;;5.20;;
44508;SDS011;30214;52.246;14.408;2023-01-08T11:00:51;8.90;;;5.25;;
44508;SDS011;30214;52.246;14.408;2023-01-08T11:03:19;7.45;;;5.18;;
44508;SDS011;30214;52.246;14.408;2023-01-08T11:05:56;7.47;;;5.03;;
44508;SDS011;30214;52.246;14.408;2023-01-08T11:08:23;7.78;;;4.90;;
44508;SDS011;30214;52.246;14.408;2023-01-08T11:10:51;7.20;;;4.53;;
44508;SDS011;30214;52.246;14.408;2023-01-08T11:13:20;7.97;;;5.22;;
44508;SDS011;30214;52.246;14.408;2023-01-08T11:15:57;9.68;;;5.45;;
44508;SDS011;30214;52.246;14.408;2023-01-08T11:18:28;6.85;;;4.85;;
44508;SDS011;30214;52.246;14.408;2023-01-08T11:21:05;6.63;;;4.65;;
44508;SDS011;30214;52.246;14.408;2023-01-08T11:23:35;8.07;;;5.38;;
44508;SDS011;30214;52.246;14.408;2023-01-08T11:26:04;9.32;;;6.40;;
44508;SDS011;30214;52.246;14.408;2023-01-08T11:28:41;14.88;;;8.05;;
44508;SDS011;30214;52.246;14.408;2023-01-08T11:31:18;7.78;;;5.53;;
44508;SDS011;30214;52.246;14.408;2023-01-08T11:33:49;8.25;;;5.50;;
44508;SDS011;30214;52.246;14.408;2023-01-08T11:36:25;14.38;;;8.05;;
44508;SDS011;30214;52.246;14.408;2023-01-08T11:38:57;9.10;;;6.78;;
44508;SDS011;30214;52.246;14.408;2023-01-08T11:41:29;7.05;;;4.95;;
44508;SDS011;30214;52.246;14.408;2023-01-08T11:44:13;9.63;;;5.53;;
44508;SDS011;30214;52.246;14.408;2023-01-08T11:46:55;7.38;;;5.70;;
44508;SDS011;30214;52.246;14.408;2023-01-08T11:49:36;8.75;;;5.55;;
44508;SDS011;30214;52.246;14.408;2023-01-08T11:52:27;7.25;;;4.95;;
44508;SDS011;30214;52.246;14.408;2023-01-08T11:55:25;7.45;;;5.38;;
44508;SDS011;30214;52.246;14.408;2023-01-08T11:58:12;7.28;;;5.05;;
44508;SDS011;30214;52.246;14.408;2023-01-08T12:00:53;7.43;;;5.07;;
44508;SDS011;30214;52.246;14.408;2023-01-08T12:03:43;7.20;;;4.75;;
44508;SDS011;30214;52.246;14.408;2023-01-08T12:06:19;6.20;;;4.60;;
44508;SDS011;30214;52.246;14.408;2023-01-08T12:08:58;6.65;;;4.53;;
44508;SDS011;30214;52.246;14.408;2023-01-08T12:11:39;9.50;;;6.07;;
44508;SDS011;30214;52.246;14.408;2023-01-08T12:14:18;6.85;;;4.85;;
44508;SDS011;30214;52.246;14.408;2023-01-08T12:17:05;6.43;;;4.60;;
44508;SDS011;30214;52.246;14.408;2023-01-08T12:19:53;9.75;;;6.70;;
44508;SDS011;30214;52.246;14.408;2023-01-08T12:22:35;20.20;;;11.65;;
44508;SDS011;30214;52.246;14.408;2023-01-08T12:25:20;10.98;;;6.45;;
44508;SDS011;30214;52.246;14.408;2023-01-08T12:28:01;11.55;;;8.85;;
44508;SDS011;30214;52.246;14.408;2023-01-08T12:30:46;8.95;;;6.75;;
44508;SDS011;30214;52.246;14.408;2023-01-08T12:33:32;14.82;;;9.18;;
44508;SDS011;30214;52.246;14.408;2023-01-08T12:36:07;14.30;;;12.80;;
44508;SDS011;30214;52.246;14.408;2023-01-08T12:38:40;8.35;;;5.70;;
44508;SDS011;30214;52.246;14.408;2023-01-08T12:41:11;9.90;;;6.72;;
44508;SDS011;30214;52.246;14.408;2023-01-08T12:43:44;9.45;;;7.43;;
44508;SDS011;30214;52.246;14.408;2023-01-08T12:46:18;8.18;;;6.03;;
44508;SDS011;30214;52.246;14.408;2023-01-08T12:48:47;8.23;;;5.30;;
44508;SDS011;30214;52.246;14.408;2023-01-08T12:51:19;8.30;;;6.20;;
44508;SDS011;30214;52.246;14.408;2023-01-08T12:53:55;8.38;;;5.22;;
44508;SDS011;30214;52.246;14.408;2023-01-08T12:56:33;9.38;;;5.80;;
44508;SDS011;30214;52.246;14.408;2023-01-08T13:02:03;6.85;;;4.50;;
44508;SDS011;30214;52.246;14.408;2023-01-08T13:04:41;6.18;;;4.70;;
44508;SDS011;30214;52.246;14.408;2023-01-08T13:07:16;8.18;;;5.50;;
44508;SDS011;30214;52.246;14.408;2023-01-08T13:09:52;7.50;;;4.75;;
44508;SDS011;30214;52.246;14.408;2023-01-08T13:12:25;6.95;;;4.85;;
44508;SDS011;30214;52.246;14.408;2023-01-08T13:15:00;8.27;;;4.97;;
44508;SDS011;30214;52.246;14.408;2023-01-08T13:17:27;7.70;;;5.18;;
44508;SDS011;30214;52.246;14.408;2023-01-08T13:19:58;9.27;;;5.60;;
44508;SDS011;30214;52.246;14.408;2023-01-08T13:22:29;9.35;;;5.53;;
44508;SDS011;30214;52.246;14.408;2023-01-08T13:25:10;8.25;;;5.97;;
44508;SDS011;30214;52.246;14.408;2023-01-08T13:27:54;10.07;;;6.82;;
44508;SDS011;30214;52.246;14.408;2023-01-08T13:30:34;20.65;;;10.70;;
44508;SDS011;30214;52.246;14.408;2023-01-08T13:36:15;34.15;;;19.00;;
44508;SDS011;30214;52.246;14.408;2023-01-08T13:38:57;16.58;;;10.38;;
44508;SDS011;30214;52.246;14.408;2023-01-08T13:41:27;13.35;;;8.45;;
44508;SDS011;30214;52.246;14.408;2023-01-08T13:43:58;11.60;;;6.50;;
44508;SDS011;30214;52.246;14.408;2023-01-08T13:46:30;15.57;;;9.35;;
44508;SDS011;30214;52.246;14.408;2023-01-08T13:49:02;16.25;;;9.20;;
44508;SDS011;30214;52.246;14.408;2023-01-08T13:51:38;15.88;;;9.68;;
44508;SDS011;30214;52.246;14.408;2023-01-08T13:54:16;16.13;;;7.70;;
44508;SDS011;30214;52.246;14.408;2023-01-08T13:56:51;18.65;;;8.82;;
44508;SDS011;30214;52.246;14.408;2023-01-08T13:59:26;13.23;;;7.50;;
44508;SDS011;30214;52.246;14.408;2023-01-08T14:01:59;15.98;;;9.07;;
44508;SDS011;30214;52.246;14.408;2023-01-08T14:04:27;21.52;;;10.85;;
44508;SDS011;30214;52.246;14.408;2023-01-08T14:07:03;25.63;;;12.00;;
44508;SDS011;30214;52.246;14.408;2023-01-08T14:09:39;9.55;;;6.13;;
44508;SDS011;30214;52.246;14.408;2023-01-08T14:12:07;8.32;;;6.00;;
44508;SDS011;30214;52.246;14.408;2023-01-08T14:14:40;10.45;;;6.15;;
44508;SDS011;30214;52.246;14.408;2023-01-08T14:17:13;9.05;;;5.60;;
44508;SDS011;30214;52.246;14.408;2023-01-08T14:19:42;7.53;;;4.93;;
44508;SDS011;30214;52.246;14.408;2023-01-08T14:22:11;9.82;;;6.38;;
44508;SDS011;30214;52.246;14.408;2023-01-08T14:24:52;9.20;;;5.35;;
44508;SDS011;30214;52.246;14.408;2023-01-08T14:27:23;6.97;;;4.88;;
44508;SDS011;30214;52.246;14.408;2023-01-08T14:29:52;11.80;;;7.60;;
44508;SDS011;30214;52.246;14.408;2023-01-08T14:32:20;8.80;;;6.20;;
44508;SDS011;30214;52.246;14.408;2023-01-08T14:34:50;8.27;;;5.97;;
44508;SDS011;30214;52.246;14.408;2023-01-08T14:37:19;7.30;;;5.07;;
44508;SDS011;30214;52.246;14.408;2023-01-08T14:39:48;8.60;;;5.72;;
44508;SDS011;30214;52.246;14.408;2023-01-08T14:42:16;7.70;;;5.15;;
44508;SDS011;30214;52.246;14.408;2023-01-08T14:45:05;7.78;;;5.00;;
44508;SDS011;30214;52.246;14.408;2023-01-08T14:47:42;8.13;;;5.80;;
44508;SDS011;30214;52.246;14.408;2023-01-08T14:50:17;11.87;;;5.33;;
44508;SDS011;30214;52.246;14.408;2023-01-08T14:52:48;8.15;;;5.22;;
44508;SDS011;30214;52.246;14.408;2023-01-08T14:55:18;7.47;;;5.38;;
44508;SDS011;30214;52.246;14.408;2023-01-08T14:57:46;10.60;;;6.10;;
44508;SDS011;30214;52.246;14.408;2023-01-08T15:00:17;10.80;;;7.22;;
44508;SDS011;30214;52.246;14.408;2023-01-08T15:02:48;13.55;;;9.10;;
44508;SDS011;30214;52.246;14.408;2023-01-08T15:05:17;8.07;;;5.50;;